createdAt,value
2022-09-28T00:00:36.432Z,47.88
2022-09-28T00:01:36.474Z,53.53
2022-09-28T00:02:36.523Z,58.21
2022-09-28T00:03:37.432Z,53.53
2022-09-28T00:04:36.400Z,37.48
2022-09-28T00:05:36.388Z,37.15
2022-09-28T00:06:36.381Z,44.09
2022-09-28T00:07:36.373Z,41.47
2022-09-28T00:08:36.394Z,45.98
2022-09-28T00:09:36.357Z,45.37
2022-09-28T00:10:36.345Z,46.92
2022-09-28T00:11:36.344Z,52.58
2022-09-28T00:12:36.338Z,46.91
2022-09-28T00:13:36.351Z,45.00
2022-09-28T00:14:36.318Z,50.97
2022-09-28T00:15:36.310Z,40.95
2022-09-28T00:16:36.353Z,52.65
2022-09-28T00:17:36.296Z,47.99
2022-09-28T00:18:36.320Z,46.02
2022-09-28T00:19:36.277Z,45.60
2022-09-28T00:20:36.271Z,47.47
2022-09-28T00:21:36.259Z,53.31
2022-09-28T00:22:36.252Z,42.68
2022-09-28T00:23:36.271Z,53.90
2022-09-28T00:24:36.238Z,49.76
2022-09-28T00:25:36.234Z,51.64
2022-09-28T00:26:36.228Z,46.08
2022-09-28T00:27:36.218Z,51.00
2022-09-28T00:28:36.230Z,38.31
2022-09-28T00:29:36.197Z,37.38
2022-09-28T00:30:36.189Z,37.92
2022-09-28T00:31:36.240Z,47.64
2022-09-28T00:32:36.175Z,49.06
2022-09-28T00:33:36.196Z,45.77
2022-09-28T00:34:36.163Z,53.87
2022-09-28T00:35:36.149Z,55.12
2022-09-28T00:36:36.142Z,39.37
2022-09-28T00:37:36.137Z,50.59
2022-09-28T00:38:36.135Z,47.23
2022-09-28T00:39:36.144Z,37.92
2022-09-28T00:40:36.162Z,42.30
2022-09-28T00:41:36.104Z,37.60
2022-09-28T00:42:36.096Z,47.05
2022-09-28T00:43:36.086Z,48.65
2022-09-28T00:44:36.105Z,37.98
2022-09-28T00:45:36.141Z,46.18
2022-09-28T00:46:36.068Z,49.18
2022-09-28T00:47:36.055Z,38.70
2022-09-28T00:48:36.051Z,42.07
2022-09-28T00:49:36.066Z,45.62
2022-09-28T00:50:36.035Z,39.17
2022-09-28T00:51:36.026Z,42.92
2022-09-28T00:52:36.021Z,50.24
2022-09-28T00:53:36.011Z,51.28
2022-09-28T00:54:36.029Z,44.70
2022-09-28T00:55:36.005Z,45.95
2022-09-28T00:56:35.992Z,58.15
2022-09-28T00:57:35.986Z,47.67
2022-09-28T00:58:35.974Z,43.46
2022-09-28T00:59:35.989Z,46.80
2022-09-28T01:00:35.975Z,46.09
2022-09-28T01:01:35.952Z,50.26
2022-09-28T01:02:35.944Z,51.64
2022-09-28T01:03:35.936Z,51.55
2022-09-28T01:04:35.957Z,50.02
2022-09-28T01:05:35.922Z,41.89
2022-09-28T01:06:35.934Z,45.65
2022-09-28T01:07:35.910Z,48.47
2022-09-28T01:08:35.902Z,50.59
2022-09-28T01:09:35.916Z,45.34
2022-09-28T01:10:35.888Z,49.87
2022-09-28T01:11:35.950Z,58.87
2022-09-28T01:12:35.873Z,47.85
2022-09-28T01:13:35.864Z,51.95
2022-09-28T01:14:35.879Z,40.70
2022-09-28T01:15:35.846Z,59.72
2022-09-28T01:16:35.857Z,48.32
2022-09-28T01:17:35.832Z,47.24
2022-09-28T01:18:35.824Z,53.61
2022-09-28T01:19:35.846Z,48.01
2022-09-28T01:20:35.809Z,41.87
2022-09-28T01:21:35.799Z,54.80
2022-09-28T01:22:35.790Z,55.84
2022-09-28T01:23:35.827Z,52.04
2022-09-28T01:24:35.805Z,45.56
2022-09-28T01:25:35.769Z,46.27
2022-09-28T01:26:35.764Z,42.80
2022-09-28T01:27:35.753Z,43.29
2022-09-28T01:28:35.747Z,48.72
2022-09-28T01:29:35.735Z,42.21
2022-09-28T01:30:35.755Z,48.70
2022-09-28T01:31:35.796Z,44.73
2022-09-28T01:32:35.721Z,45.22
2022-09-28T01:33:35.709Z,53.29
2022-09-28T01:34:35.701Z,54.23
2022-09-28T01:35:35.718Z,59.57
2022-09-28T01:36:35.683Z,52.67
2022-09-28T01:37:35.680Z,44.71
2022-09-28T01:38:35.671Z,45.24
2022-09-28T01:39:35.759Z,53.67
2022-09-28T01:40:35.746Z,50.06
2022-09-28T01:41:35.648Z,49.40
2022-09-28T01:42:35.641Z,50.27
2022-09-28T01:43:35.630Z,45.21
2022-09-28T01:44:35.663Z,49.96
2022-09-28T01:45:35.729Z,54.66
2022-09-28T01:46:35.607Z,51.27
2022-09-28T01:47:35.599Z,54.24
2022-09-28T01:48:35.594Z,52.35
2022-09-28T01:49:35.617Z,55.83
2022-09-28T01:50:36.605Z,53.17
2022-09-28T01:51:35.572Z,48.81
2022-09-28T01:52:35.565Z,51.67
2022-09-28T01:53:35.560Z,53.00
2022-09-28T01:54:35.551Z,52.18
2022-09-28T01:55:35.572Z,51.35
2022-09-28T01:56:35.538Z,53.14
2022-09-28T01:57:35.531Z,55.11
2022-09-28T01:58:35.525Z,56.76
2022-09-28T01:59:35.510Z,52.49
2022-09-28T02:00:35.564Z,50.17
2022-09-28T02:01:36.496Z,55.64
2022-09-28T02:02:35.552Z,54.23
2022-09-28T02:03:35.486Z,56.36
2022-09-28T02:04:35.490Z,54.23
2022-09-28T02:05:35.490Z,55.30
2022-09-28T02:06:35.459Z,56.71
2022-09-28T02:07:35.447Z,56.34
2022-09-28T02:08:35.440Z,54.46
2022-09-28T02:09:35.434Z,57.18
2022-09-28T02:10:35.449Z,53.93
2022-09-28T02:11:35.418Z,59.70
2022-09-28T02:12:35.398Z,61.29
2022-09-28T02:13:36.397Z,60.88
2022-09-28T02:14:35.392Z,60.15
2022-09-28T02:15:35.407Z,57.54
2022-09-28T02:16:35.402Z,58.97
2022-09-28T02:17:35.368Z,58.33
2022-09-28T02:18:35.362Z,53.83
2022-09-28T02:19:35.357Z,53.95
2022-09-28T02:20:35.369Z,53.80
2022-09-28T02:21:35.339Z,54.05
2022-09-28T02:22:35.328Z,53.98
2022-09-28T02:23:35.320Z,57.83
2022-09-28T02:24:35.313Z,60.75
2022-09-28T02:25:35.333Z,58.15
2022-09-28T02:26:35.297Z,58.62
2022-09-28T02:27:35.291Z,56.88
2022-09-28T02:28:35.287Z,58.94
2022-09-28T02:29:35.274Z,58.95
2022-09-28T02:30:35.291Z,56.75
2022-09-28T02:31:35.337Z,57.03
2022-09-28T02:32:35.253Z,59.16
2022-09-28T02:33:35.241Z,57.36
2022-09-28T02:34:35.237Z,57.76
2022-09-28T02:35:35.255Z,58.90
2022-09-28T02:36:35.221Z,55.32
2022-09-28T02:37:35.210Z,55.80
2022-09-28T02:38:35.203Z,55.92
2022-09-28T02:39:35.200Z,60.43
2022-09-28T02:40:35.251Z,52.00
2022-09-28T02:41:35.182Z,58.86
2022-09-28T02:42:35.174Z,54.48
2022-09-28T02:43:35.164Z,45.19
2022-09-28T02:44:35.155Z,49.57
2022-09-28T02:45:35.189Z,52.12
2022-09-28T02:46:35.144Z,56.57
2022-09-28T02:47:35.134Z,47.81
2022-09-28T02:48:43.603Z,49.70
2022-09-28T02:49:37.120Z,50.21
2022-09-28T02:50:35.135Z,53.04
2022-09-28T02:51:35.104Z,55.31
2022-09-28T02:52:35.094Z,51.06
2022-09-28T02:53:35.079Z,44.27
2022-09-28T02:54:36.077Z,51.34
2022-09-28T02:55:35.093Z,58.99
2022-09-28T02:56:35.065Z,59.16
2022-09-28T02:57:35.054Z,54.91
2022-09-28T02:58:35.048Z,48.63
2022-09-28T02:59:35.043Z,58.66
2022-09-28T03:00:35.121Z,49.27
2022-09-28T03:01:35.024Z,51.09
2022-09-28T03:02:35.017Z,49.86
2022-09-28T03:03:35.009Z,54.82
2022-09-28T03:04:35.004Z,60.43
2022-09-28T03:05:35.025Z,55.90
2022-09-28T03:06:34.984Z,50.27
2022-09-28T03:07:34.987Z,55.60
2022-09-28T03:08:34.972Z,56.83
2022-09-28T03:09:34.965Z,57.51
2022-09-28T03:10:34.979Z,58.36
2022-09-28T03:11:34.949Z,56.10
2022-09-28T03:12:34.942Z,56.09
2022-09-28T03:13:34.929Z,57.82
2022-09-28T03:14:34.925Z,56.74
2022-09-28T03:15:34.938Z,52.64
2022-09-28T03:16:34.964Z,50.53
2022-09-28T03:17:34.899Z,47.23
2022-09-28T03:18:34.890Z,53.74
2022-09-28T03:19:34.891Z,62.44
2022-09-28T03:20:34.901Z,56.20
2022-09-28T03:21:34.870Z,59.63
2022-09-28T03:22:34.864Z,61.20
2022-09-28T03:23:34.854Z,52.87
2022-09-28T03:24:34.840Z,54.90
2022-09-28T03:25:34.865Z,61.71
2022-09-28T03:26:34.831Z,58.15
2022-09-28T03:27:34.813Z,58.11
2022-09-28T03:28:35.819Z,62.01
2022-09-28T03:29:34.810Z,59.95
2022-09-28T03:30:34.829Z,59.66
2022-09-28T03:31:34.810Z,58.38
2022-09-28T03:32:34.785Z,62.10
2022-09-28T03:33:34.779Z,58.24
2022-09-28T03:34:34.770Z,61.56
2022-09-28T03:35:34.786Z,60.01
2022-09-28T03:36:34.754Z,58.57
2022-09-28T03:37:34.747Z,60.73
2022-09-28T03:38:34.738Z,59.32
2022-09-28T03:39:34.733Z,64.76
2022-09-28T03:40:34.826Z,63.09
2022-09-28T03:41:34.720Z,66.35
2022-09-28T03:42:34.713Z,61.06
2022-09-28T03:43:34.701Z,57.52
2022-09-28T03:44:34.690Z,61.39
2022-09-28T03:45:34.751Z,59.39
2022-09-28T03:46:34.708Z,63.33
2022-09-28T03:47:34.673Z,62.47
2022-09-28T03:48:34.661Z,61.26
2022-09-28T03:49:34.655Z,61.43
2022-09-28T03:50:34.654Z,59.45
2022-09-28T03:51:34.662Z,60.64
2022-09-28T03:52:34.633Z,56.91
2022-09-28T03:53:34.622Z,65.28
2022-09-28T03:54:34.622Z,64.45
2022-09-28T03:55:34.608Z,57.40
2022-09-28T03:56:34.627Z,56.29
2022-09-28T03:57:34.593Z,54.79
2022-09-28T03:58:34.582Z,60.35
2022-09-28T03:59:34.578Z,60.36
2022-09-28T04:00:34.589Z,58.98
2022-09-28T04:01:34.640Z,61.76
2022-09-28T04:02:34.653Z,57.80
2022-09-28T04:03:34.547Z,64.14
2022-09-28T04:04:34.542Z,63.36
2022-09-28T04:05:34.535Z,58.02
2022-09-28T04:06:34.549Z,62.39
2022-09-28T04:07:34.518Z,61.37
2022-09-28T04:08:34.509Z,56.24
2022-09-28T04:09:34.491Z,59.64
2022-09-28T04:10:35.494Z,60.07
2022-09-28T04:11:43.014Z,64.75
2022-09-28T04:12:36.479Z,61.72
2022-09-28T04:13:34.479Z,60.17
2022-09-28T04:14:34.464Z,59.60
2022-09-28T04:15:34.458Z,62.91
2022-09-28T04:16:34.507Z,58.99
2022-09-28T04:17:39.196Z,59.79
2022-09-28T04:18:36.428Z,63.06
2022-09-28T04:19:34.424Z,60.52
2022-09-28T04:20:34.414Z,61.51
2022-09-28T04:21:34.435Z,60.09
2022-09-28T04:22:34.403Z,64.32
2022-09-28T04:23:34.392Z,60.43
2022-09-28T04:24:34.388Z,58.54
2022-09-28T04:25:34.374Z,60.53
2022-09-28T04:26:34.404Z,58.48
2022-09-28T04:27:34.359Z,59.54
2022-09-28T04:28:34.353Z,60.98
2022-09-28T04:29:34.335Z,63.34
2022-09-28T04:30:35.337Z,62.51
2022-09-28T04:31:34.442Z,53.60
2022-09-28T04:32:34.321Z,61.69
2022-09-28T04:33:34.310Z,58.34
2022-09-28T04:34:36.506Z,62.59
2022-09-28T04:35:35.296Z,66.02
2022-09-28T04:36:34.316Z,63.30
2022-09-28T04:37:34.284Z,61.36
2022-09-28T04:38:51.961Z,63.60
2022-09-28T04:39:36.267Z,64.83
2022-09-28T04:40:34.305Z,63.19
2022-09-28T04:41:34.274Z,58.35
2022-09-28T04:42:34.240Z,61.97
2022-09-28T04:43:34.237Z,62.05
2022-09-28T04:44:34.225Z,64.10
2022-09-28T04:45:34.299Z,62.99
2022-09-28T04:46:34.241Z,63.16
2022-09-28T04:47:34.197Z,64.18
2022-09-28T04:48:35.202Z,63.48
2022-09-28T04:49:34.195Z,65.98
2022-09-28T04:50:34.179Z,61.47
2022-09-28T04:51:34.201Z,65.12
2022-09-28T04:52:34.168Z,64.67
2022-09-28T04:53:34.164Z,63.67
2022-09-28T04:54:34.154Z,60.59
2022-09-28T04:55:34.186Z,62.40
2022-09-28T04:56:34.160Z,60.66
2022-09-28T04:57:34.126Z,61.06
2022-09-28T04:58:34.116Z,65.39
2022-09-28T04:59:34.112Z,64.92
2022-09-28T05:00:34.106Z,64.77
2022-09-28T05:01:34.216Z,62.42
2022-09-28T05:02:34.134Z,62.30
2022-09-28T05:03:34.087Z,64.21
2022-09-28T05:04:34.077Z,60.43
2022-09-28T05:05:34.068Z,60.80
2022-09-28T05:06:34.091Z,62.43
2022-09-28T05:07:34.061Z,64.77
2022-09-28T05:08:34.044Z,63.80
2022-09-28T05:09:38.298Z,64.30
2022-09-28T05:10:35.026Z,62.98
2022-09-28T05:11:34.045Z,63.29
2022-09-28T05:12:34.013Z,63.05
2022-09-28T05:13:34.010Z,65.08
2022-09-28T05:14:33.997Z,65.67
2022-09-28T05:15:33.990Z,59.30
2022-09-28T05:16:34.133Z,64.94
2022-09-28T05:17:33.975Z,62.57
2022-09-28T05:18:33.969Z,65.47
2022-09-28T05:19:33.962Z,64.47
2022-09-28T05:20:33.956Z,64.90
2022-09-28T05:21:33.973Z,61.25
2022-09-28T05:22:33.942Z,62.26
2022-09-28T05:23:34.675Z,65.34
2022-09-28T05:24:34.920Z,62.30
2022-09-28T05:25:33.910Z,62.61
2022-09-28T05:26:33.918Z,63.11
2022-09-28T05:27:34.897Z,63.56
2022-09-28T05:28:33.891Z,64.07
2022-09-28T05:29:33.882Z,59.08
2022-09-28T05:30:33.873Z,58.81
2022-09-28T05:31:33.917Z,62.10
2022-09-28T05:32:33.860Z,59.38
2022-09-28T05:33:33.857Z,62.31
2022-09-28T05:34:33.847Z,61.09
2022-09-28T05:35:33.836Z,59.22
2022-09-28T05:36:33.857Z,62.94
2022-09-28T05:37:33.821Z,62.20
2022-09-28T05:38:33.811Z,64.08
2022-09-28T05:39:33.805Z,63.68
2022-09-28T05:40:33.844Z,61.22
2022-09-28T05:41:33.816Z,59.97
2022-09-28T05:42:33.785Z,64.86
2022-09-28T05:43:33.792Z,65.66
2022-09-28T05:44:33.772Z,64.25
2022-09-28T05:45:33.857Z,65.32
2022-09-28T05:46:34.786Z,63.18
2022-09-28T05:47:33.744Z,67.24
2022-09-28T05:48:33.734Z,62.38
2022-09-28T05:49:33.725Z,65.30
2022-09-28T05:50:33.717Z,61.80
2022-09-28T05:51:33.737Z,64.94
2022-09-28T05:52:33.705Z,65.17
2022-09-28T05:53:33.692Z,65.15
2022-09-28T05:54:33.686Z,65.53
2022-09-28T05:55:33.755Z,63.55
2022-09-28T05:56:33.696Z,61.36
2022-09-28T05:57:33.661Z,63.66
2022-09-28T05:58:33.651Z,65.00
2022-09-28T05:59:33.644Z,64.98
2022-09-28T06:00:33.633Z,62.32
2022-09-28T06:01:33.703Z,64.55
2022-09-28T06:02:33.661Z,61.12
2022-09-28T06:03:33.617Z,63.23
2022-09-28T06:04:33.605Z,62.66
2022-09-28T06:05:33.615Z,65.16
2022-09-28T06:06:33.620Z,62.38
2022-09-28T06:07:33.585Z,62.17
2022-09-28T06:08:33.577Z,63.80
2022-09-28T06:09:33.569Z,59.17
2022-09-28T06:10:33.559Z,61.08
2022-09-28T06:11:33.584Z,57.45
2022-09-28T06:12:33.544Z,61.58
2022-09-28T06:13:33.539Z,62.83
2022-09-28T06:14:33.528Z,63.48
2022-09-28T06:15:33.523Z,61.25
2022-09-28T06:16:33.591Z,60.16
2022-09-28T06:17:33.506Z,60.96
2022-09-28T06:18:33.495Z,64.30
2022-09-28T06:19:33.493Z,65.13
2022-09-28T06:20:33.482Z,60.53
2022-09-28T06:21:33.499Z,61.53
2022-09-28T06:22:33.465Z,61.95
2022-09-28T06:23:33.458Z,63.87
2022-09-28T06:24:33.445Z,58.00
2022-09-28T06:25:33.439Z,61.40
2022-09-28T06:26:33.460Z,62.57
2022-09-28T06:27:33.425Z,63.31
2022-09-28T06:28:33.417Z,56.86
2022-09-28T06:29:33.415Z,58.81
2022-09-28T06:30:33.486Z,62.22
2022-09-28T06:31:33.426Z,62.99
2022-09-28T06:32:33.383Z,62.78
2022-09-28T06:33:33.377Z,55.69
2022-09-28T06:34:33.381Z,59.01
2022-09-28T06:35:33.361Z,59.72
2022-09-28T06:36:33.382Z,62.76
2022-09-28T06:37:33.348Z,64.92
2022-09-28T06:38:33.343Z,61.34
2022-09-28T06:39:33.332Z,61.51
2022-09-28T06:40:33.368Z,58.60
2022-09-28T06:41:33.348Z,61.44
2022-09-28T06:42:33.318Z,60.20
2022-09-28T06:43:34.493Z,61.63
2022-09-28T06:44:34.293Z,62.95
2022-09-28T06:45:33.288Z,62.00
2022-09-28T06:46:33.376Z,54.96
2022-09-28T06:47:33.274Z,58.07
2022-09-28T06:48:33.264Z,64.00
2022-09-28T06:49:33.256Z,60.38
2022-09-28T06:50:33.250Z,61.14
2022-09-28T06:51:33.268Z,61.48
2022-09-28T06:52:33.232Z,59.50
2022-09-28T06:53:33.229Z,56.51
2022-09-28T06:54:33.215Z,60.67
2022-09-28T06:55:33.211Z,58.79
2022-09-28T06:56:33.289Z,62.70
2022-09-28T06:57:33.199Z,57.13
2022-09-28T06:58:33.185Z,58.81
2022-09-28T06:59:33.183Z,62.19
2022-09-28T07:00:33.175Z,59.57
2022-09-28T07:01:33.222Z,62.55
2022-09-28T07:02:33.197Z,55.83
2022-09-28T07:03:33.149Z,53.03
2022-09-28T07:04:33.147Z,55.04
2022-09-28T07:05:33.138Z,61.25
2022-09-28T07:06:33.154Z,60.05
2022-09-28T07:07:33.123Z,57.83
2022-09-28T07:08:33.118Z,60.34
2022-09-28T07:09:35.059Z,60.36
2022-09-28T07:10:34.104Z,53.75
2022-09-28T07:11:33.113Z,55.81
2022-09-28T07:12:33.086Z,60.34
2022-09-28T07:13:49.870Z,59.75
2022-09-28T07:14:47.461Z,56.78
2022-09-28T07:15:35.060Z,62.21
2022-09-28T07:16:57.633Z,59.35
2022-09-28T07:17:42.224Z,58.59
2022-09-28T07:18:34.037Z,61.11
2022-09-28T07:19:33.023Z,58.63
2022-09-28T07:20:36.082Z,61.73
2022-09-28T07:21:34.029Z,59.10
2022-09-28T07:22:42.209Z,58.69
2022-09-28T07:23:46.491Z,55.85
2022-09-28T07:24:34.990Z,58.89
2022-09-28T07:25:32.987Z,59.08
2022-09-28T07:26:32.991Z,57.09
2022-09-28T07:27:32.969Z,61.12
2022-09-28T07:28:32.957Z,57.78
2022-09-28T07:29:32.946Z,57.05
2022-09-28T07:30:32.987Z,58.79
2022-09-28T07:31:32.956Z,56.72
2022-09-28T07:32:32.929Z,59.28
2022-09-28T07:33:32.931Z,59.54
2022-09-28T07:34:32.896Z,60.29
2022-09-28T07:35:33.896Z,59.08
2022-09-28T07:36:32.918Z,58.50
2022-09-28T07:37:32.881Z,57.23
2022-09-28T07:38:32.875Z,56.94
2022-09-28T07:39:32.869Z,58.99
2022-09-28T07:40:32.882Z,55.45
2022-09-28T07:41:32.881Z,62.28
2022-09-28T07:42:32.852Z,59.42
2022-09-28T07:43:32.844Z,52.16
2022-09-28T07:44:32.835Z,57.43
2022-09-28T07:45:32.883Z,62.11
2022-09-28T07:46:32.840Z,59.14
2022-09-28T07:47:35.231Z,55.12
2022-09-28T07:48:33.802Z,62.03
2022-09-28T07:49:32.792Z,58.62
2022-09-28T07:50:32.785Z,59.63
2022-09-28T07:51:32.808Z,59.68
2022-09-28T07:52:32.768Z,56.24
2022-09-28T07:53:32.757Z,59.15
2022-09-28T07:54:32.754Z,59.95
2022-09-28T07:55:33.389Z,61.23
2022-09-28T07:56:32.764Z,60.15
2022-09-28T07:57:32.742Z,58.16
2022-09-28T07:58:32.726Z,62.77
2022-09-28T07:59:32.713Z,62.62
2022-09-28T08:00:34.215Z,57.25
2022-09-28T08:01:33.782Z,61.15
2022-09-28T08:02:32.741Z,61.56
2022-09-28T08:03:32.686Z,57.63
2022-09-28T08:04:32.678Z,64.30
2022-09-28T08:05:32.673Z,59.58
2022-09-28T08:06:32.664Z,60.27
2022-09-28T08:07:32.683Z,59.75
2022-09-28T08:08:32.653Z,62.09
2022-09-28T08:09:32.642Z,61.56
2022-09-28T08:10:32.635Z,57.97
2022-09-28T08:11:32.625Z,61.82
2022-09-28T08:12:32.640Z,55.91
2022-09-28T08:13:32.615Z,63.96
2022-09-28T08:14:32.599Z,62.38
2022-09-28T08:15:32.601Z,59.84
2022-09-28T08:16:32.719Z,58.90
2022-09-28T08:17:32.608Z,60.51
2022-09-28T08:18:32.573Z,60.09
2022-09-28T08:19:32.565Z,59.84
2022-09-28T08:20:32.560Z,56.06
2022-09-28T08:21:32.547Z,58.84
2022-09-28T08:22:32.559Z,48.92
2022-09-28T08:23:32.528Z,53.35
2022-09-28T08:24:32.519Z,59.58
2022-09-28T08:25:32.513Z,60.80
2022-09-28T08:26:32.506Z,60.00
2022-09-28T08:27:32.520Z,59.79
2022-09-28T08:28:32.493Z,55.51
2022-09-28T08:29:32.483Z,57.55
2022-09-28T08:30:32.492Z,60.85
2022-09-28T08:31:32.468Z,59.17
2022-09-28T08:32:32.481Z,58.01
2022-09-28T08:33:32.449Z,57.83
2022-09-28T08:34:32.444Z,58.83
2022-09-28T08:35:32.438Z,57.86
2022-09-28T08:36:32.461Z,59.39
2022-09-28T08:37:32.441Z,50.31
2022-09-28T08:38:32.408Z,56.63
2022-09-28T08:39:32.403Z,61.42
2022-09-28T08:40:32.440Z,61.56
2022-09-28T08:41:32.411Z,59.27
2022-09-28T08:42:32.380Z,58.10
2022-09-28T08:43:32.374Z,61.23
2022-09-28T08:44:32.412Z,61.48
2022-09-28T08:45:32.356Z,58.25
2022-09-28T08:46:32.408Z,62.25
2022-09-28T08:47:32.343Z,62.98
2022-09-28T08:48:32.334Z,58.52
2022-09-28T08:49:32.680Z,55.68
2022-09-28T08:50:32.318Z,60.71
2022-09-28T08:51:32.333Z,56.25
2022-09-28T08:52:32.302Z,59.94
2022-09-28T08:53:32.288Z,58.33
2022-09-28T08:54:32.286Z,60.69
2022-09-28T08:55:32.275Z,60.23
2022-09-28T08:56:32.302Z,57.53
2022-09-28T08:57:32.263Z,61.62
2022-09-28T08:58:32.251Z,56.58
2022-09-28T08:59:32.249Z,54.36
2022-09-28T09:00:32.238Z,56.68
2022-09-28T09:01:32.325Z,57.82
2022-09-28T09:02:32.290Z,52.42
2022-09-28T09:03:32.215Z,56.36
2022-09-28T09:04:32.205Z,57.40
2022-09-28T09:05:32.199Z,57.94
2022-09-28T09:06:32.215Z,55.79
2022-09-28T09:07:32.182Z,57.36
2022-09-28T09:08:32.177Z,56.02
2022-09-28T09:09:32.168Z,56.23
2022-09-28T09:10:32.165Z,55.27
2022-09-28T09:11:33.183Z,52.26
2022-09-28T09:12:32.142Z,52.76
2022-09-28T09:13:32.137Z,58.73
2022-09-28T09:14:32.129Z,56.07
2022-09-28T09:15:32.121Z,53.03
2022-09-28T09:16:32.171Z,55.70
2022-09-28T09:17:32.104Z,59.91
2022-09-28T09:18:32.099Z,52.85
2022-09-28T09:19:32.091Z,56.78
2022-09-28T09:20:32.088Z,54.30
2022-09-28T09:21:32.104Z,57.65
2022-09-28T09:22:32.064Z,59.30
2022-09-28T09:23:32.056Z,54.01
2022-09-28T09:24:32.048Z,57.93
2022-09-28T09:25:35.405Z,58.36
2022-09-28T09:26:34.056Z,53.89
2022-09-28T09:27:32.032Z,56.94
2022-09-28T09:28:32.018Z,59.11
2022-09-28T09:29:32.006Z,50.79
2022-09-28T09:30:32.107Z,57.09
2022-09-28T09:31:32.024Z,54.23
2022-09-28T09:32:31.982Z,56.98
2022-09-28T09:33:31.978Z,59.31
2022-09-28T09:34:31.970Z,57.90
2022-09-28T09:35:31.965Z,55.91
2022-09-28T09:36:31.979Z,55.56
2022-09-28T09:37:31.948Z,58.31
2022-09-28T09:38:31.938Z,58.89
2022-09-28T09:39:31.933Z,57.48
2022-09-28T09:40:31.934Z,58.34
2022-09-28T09:41:31.938Z,56.58
2022-09-28T09:42:31.909Z,55.04
2022-09-28T09:43:32.022Z,60.16
2022-09-28T09:44:31.895Z,56.44
2022-09-28T09:45:31.892Z,53.39
2022-09-28T09:46:31.917Z,56.26
2022-09-28T09:47:31.871Z,57.04
2022-09-28T09:48:31.868Z,57.31
2022-09-28T09:49:31.861Z,52.77
2022-09-28T09:50:31.860Z,53.97
2022-09-28T09:51:31.866Z,54.45
2022-09-28T09:52:31.829Z,59.98
2022-09-28T09:53:34.838Z,58.03
2022-09-28T09:54:32.825Z,58.37
2022-09-28T09:55:31.812Z,55.55
2022-09-28T09:56:31.827Z,53.89
2022-09-28T09:57:31.801Z,55.07
2022-09-28T09:58:31.797Z,54.01
2022-09-28T09:59:31.772Z,55.73
2022-09-28T10:00:31.769Z,55.18
2022-09-28T10:01:31.866Z,54.71
2022-09-28T10:02:31.827Z,54.32
2022-09-28T10:03:31.750Z,52.42
2022-09-28T10:04:31.739Z,53.60
2022-09-28T10:05:31.728Z,52.90
2022-09-28T10:06:31.753Z,57.97
2022-09-28T10:07:31.711Z,52.61
2022-09-28T10:08:31.709Z,57.97
2022-09-28T10:09:31.700Z,59.62
2022-09-28T10:10:31.686Z,55.46
2022-09-28T10:11:31.710Z,57.50
2022-09-28T10:12:31.680Z,57.77
2022-09-28T10:13:31.661Z,56.12
2022-09-28T10:14:31.650Z,56.43
2022-09-28T10:15:31.646Z,59.13
2022-09-28T10:16:31.740Z,56.51
2022-09-28T10:17:31.635Z,57.94
2022-09-28T10:18:31.633Z,58.43
2022-09-28T10:19:31.623Z,59.37
2022-09-28T10:20:31.609Z,55.72
2022-09-28T10:21:31.602Z,55.61
2022-09-28T10:22:31.623Z,57.94
2022-09-28T10:23:31.600Z,58.40
2022-09-28T10:24:31.592Z,58.72
2022-09-28T10:25:31.574Z,60.41
2022-09-28T10:26:31.566Z,58.82
2022-09-28T10:27:31.588Z,57.87
2022-09-28T10:28:31.561Z,58.35
2022-09-28T10:29:31.554Z,60.21
2022-09-28T10:30:31.583Z,59.41
2022-09-28T10:31:31.529Z,58.17
2022-09-28T10:32:31.544Z,58.57
2022-09-28T10:33:31.516Z,59.18
2022-09-28T10:34:31.509Z,61.23
2022-09-28T10:35:31.501Z,57.07
2022-09-28T10:36:31.490Z,55.17
2022-09-28T10:37:31.502Z,60.41
2022-09-28T10:38:31.472Z,56.01
2022-09-28T10:39:31.467Z,59.66
2022-09-28T10:40:31.532Z,56.93
2022-09-28T10:41:31.452Z,56.55
2022-09-28T10:42:31.468Z,59.95
2022-09-28T10:43:31.438Z,59.19
2022-09-28T10:44:31.424Z,56.72
2022-09-28T10:45:31.418Z,57.45
2022-09-28T10:46:31.499Z,60.61
2022-09-28T10:47:32.420Z,61.22
2022-09-28T10:48:31.394Z,57.95
2022-09-28T10:49:31.395Z,56.77
2022-09-28T10:50:31.376Z,54.70
2022-09-28T10:51:31.388Z,60.05
2022-09-28T10:52:31.378Z,59.86
2022-09-28T10:53:31.351Z,60.82
2022-09-28T10:54:31.344Z,58.16
2022-09-28T10:55:31.329Z,57.57
2022-09-28T10:56:31.329Z,55.52
2022-09-28T10:57:31.353Z,56.99
2022-09-28T10:58:31.314Z,55.49
2022-09-28T10:59:31.336Z,55.15
2022-09-28T11:00:31.302Z,54.30
2022-09-28T11:01:31.397Z,55.94
2022-09-28T11:02:35.462Z,53.57
2022-09-28T11:03:32.272Z,53.55
2022-09-28T11:04:31.274Z,59.32
2022-09-28T11:05:31.261Z,56.66
2022-09-28T11:06:31.266Z,49.79
2022-09-28T11:07:31.266Z,54.75
2022-09-28T11:08:31.241Z,55.80
2022-09-28T11:09:31.509Z,56.90
2022-09-28T11:10:31.218Z,53.68
2022-09-28T11:11:31.220Z,49.88
2022-09-28T11:12:31.228Z,55.46
2022-09-28T11:13:31.196Z,51.77
2022-09-28T11:14:31.195Z,48.80
2022-09-28T11:15:31.200Z,56.01
2022-09-28T11:16:31.277Z,58.95
2022-09-28T11:17:31.192Z,56.83
2022-09-28T11:18:31.167Z,58.68
2022-09-28T11:19:31.167Z,61.21
2022-09-28T11:20:31.157Z,55.21
2022-09-28T11:21:31.156Z,54.09
2022-09-28T11:22:31.183Z,51.06
2022-09-28T11:23:31.125Z,55.59
2022-09-28T11:24:31.108Z,56.20
2022-09-28T11:25:31.104Z,52.12
2022-09-28T11:26:31.099Z,51.35
2022-09-28T11:27:31.107Z,54.02
2022-09-28T11:28:31.086Z,55.73
2022-09-28T11:29:31.070Z,54.05
2022-09-28T11:30:31.132Z,52.66
2022-09-28T11:31:31.052Z,53.30
2022-09-28T11:32:31.067Z,56.83
2022-09-28T11:33:31.057Z,56.82
2022-09-28T11:34:54.663Z,56.11
2022-09-28T11:35:33.023Z,56.24
2022-09-28T11:36:31.011Z,56.00
2022-09-28T11:37:31.032Z,56.47
2022-09-28T11:38:30.997Z,54.44
2022-09-28T11:39:30.991Z,51.34
2022-09-28T11:40:31.057Z,57.08
2022-09-28T11:41:30.978Z,54.81
2022-09-28T11:42:30.995Z,56.17
2022-09-28T11:43:30.965Z,53.10
2022-09-28T11:44:33.333Z,53.58
2022-09-28T11:45:31.958Z,54.93
2022-09-28T11:46:31.007Z,56.90
2022-09-28T11:47:30.963Z,58.84
2022-09-28T11:48:30.928Z,54.58
2022-09-28T11:49:30.911Z,56.19
2022-09-28T11:50:30.916Z,56.43
2022-09-28T11:51:30.899Z,55.63
2022-09-28T11:52:30.922Z,56.23
2022-09-28T11:53:30.890Z,57.78
2022-09-28T11:54:30.885Z,55.18
2022-09-28T11:55:30.877Z,59.31
2022-09-28T11:56:30.860Z,53.30
2022-09-28T11:57:30.878Z,57.32
2022-09-28T11:58:30.846Z,54.68
2022-09-28T11:59:30.836Z,53.54
2022-09-28T12:00:30.829Z,52.24
2022-09-28T12:01:30.823Z,54.66
2022-09-28T12:02:30.919Z,58.10
2022-09-28T12:03:30.969Z,56.01
2022-09-28T12:04:30.798Z,55.91
2022-09-28T12:05:30.792Z,57.11
2022-09-28T12:06:30.784Z,57.71
2022-09-28T12:07:30.804Z,58.61
2022-09-28T12:08:30.769Z,53.64
2022-09-28T12:09:30.792Z,55.67
2022-09-28T12:10:30.754Z,58.07
2022-09-28T12:11:30.746Z,55.68
2022-09-28T12:12:30.768Z,55.88
2022-09-28T12:13:30.725Z,58.79
2022-09-28T12:14:30.726Z,58.31
2022-09-28T12:15:42.209Z,57.36
2022-09-28T12:17:03.616Z,57.27
2022-09-28T12:17:32.764Z,53.38
2022-09-28T12:18:30.688Z,57.02
2022-09-28T12:19:30.683Z,57.58
2022-09-28T12:20:30.697Z,58.07
2022-09-28T12:21:30.672Z,54.47
2022-09-28T12:22:30.686Z,54.80
2022-09-28T12:23:30.652Z,55.99
2022-09-28T12:24:30.647Z,55.26
2022-09-28T12:25:30.638Z,56.85
2022-09-28T12:26:34.638Z,57.62
2022-09-28T12:27:31.640Z,57.00
2022-09-28T12:28:30.614Z,57.55
2022-09-28T12:29:30.599Z,60.12
2022-09-28T12:30:30.635Z,60.51
2022-09-28T12:31:30.586Z,56.23
2022-09-28T12:32:30.604Z,57.32
2022-09-28T12:33:30.573Z,55.15
2022-09-28T12:34:30.564Z,58.60
2022-09-28T12:35:30.564Z,60.66
2022-09-28T12:36:30.550Z,58.93
2022-09-28T12:37:30.570Z,58.32
2022-09-28T12:38:30.531Z,57.29
2022-09-28T12:39:46.840Z,54.84
2022-09-28T12:40:32.582Z,57.42
2022-09-28T12:41:30.513Z,55.79
2022-09-28T12:42:30.533Z,56.19
2022-09-28T12:43:30.502Z,56.51
2022-09-28T12:44:30.488Z,56.82
2022-09-28T12:45:38.451Z,58.01
2022-09-28T12:46:31.579Z,58.04
2022-09-28T12:47:30.489Z,54.79
2022-09-28T12:48:30.483Z,57.52
2022-09-28T12:50:33.441Z,57.85
2022-09-28T12:50:42.716Z,59.06
2022-09-28T12:51:32.427Z,57.12
2022-09-28T12:52:30.545Z,58.05